sensor_id;sensor_type;location;lat;lon;timestamp;pressure;altitude;pressure_sealevel;temperature;humidity
54270;BME280;40181;51.560;13.000;2023-03-13T00:01:36;99904.13;;;5.95;100.00
54270;BME280;40181;51.560;13.000;2023-03-13T00:04:06;99897.47;;;6.08;100.00
54270;BME280;40181;51.560;13.000;2023-03-13T00:06:39;99901.06;;;6.13;100.00
54270;BME280;40181;51.560;13.000;2023-03-13T00:09:09;99900.88;;;6.04;100.00
54270;BME280;40181;51.560;13.000;2023-03-13T00:11:39;99898.31;;;6.07;100.00
54270;BME280;40181;51.560;13.000;2023-03-13T00:14:09;99895.63;;;6.02;100.00
54270;BME280;40181;51.560;13.000;2023-03-13T00:16:38;99891.44;;;6.11;100.00
54270;BME280;40181;51.560;13.000;2023-03-13T00:19:08;99898.47;;;6.13;100.00
54270;BME280;40181;51.560;13.000;2023-03-13T00:21:40;99903.59;;;6.10;100.00
54270;BME280;40181;51.560;13.000;2023-03-13T00:24:10;99893.09;;;6.07;100.00
54270;BME280;40181;51.560;13.000;2023-03-13T00:26:39;99896.53;;;6.04;100.00
54270;BME280;40181;51.560;13.000;2023-03-13T00:29:08;99901.78;;;6.07;100.00
54270;BME280;40181;51.560;13.000;2023-03-13T00:31:37;99892.22;;;6.06;100.00
54270;BME280;40181;51.560;13.000;2023-03-13T00:34:08;99873.09;;;6.06;100.00
54270;BME280;40181;51.560;13.000;2023-03-13T00:36:40;99885.06;;;5.98;100.00
54270;BME280;40181;51.560;13.000;2023-03-13T00:39:09;99886.91;;;6.02;100.00
54270;BME280;40181;51.560;13.000;2023-03-13T00:41:38;99884.22;;;5.99;100.00
54270;BME280;40181;51.560;13.000;2023-03-13T00:44:08;99871.03;;;5.92;100.00
54270;BME280;40181;51.560;13.000;2023-03-13T00:46:37;99878.94;;;5.97;100.00
54270;BME280;40181;51.560;13.000;2023-03-13T00:49:06;99880.84;;;6.03;100.00
54270;BME280;40181;51.560;13.000;2023-03-13T00:51:35;99871.25;;;6.02;100.00
54270;BME280;40181;51.560;13.000;2023-03-13T00:54:08;99871.16;;;5.99;100.00
54270;BME280;40181;51.560;13.000;2023-03-13T00:56:37;99866.13;;;6.05;100.00
54270;BME280;40181;51.560;13.000;2023-03-13T00:59:06;99873.19;;;6.11;100.00
54270;BME280;40181;51.560;13.000;2023-03-13T01:01:36;99865.28;;;6.06;100.00
54270;BME280;40181;51.560;13.000;2023-03-13T01:04:06;99865.38;;;6.11;100.00
54270;BME280;40181;51.560;13.000;2023-03-13T01:06:39;99863.56;;;6.08;100.00
54270;BME280;40181;51.560;13.000;2023-03-13T01:09:13;99853.19;;;6.09;100.00
54270;BME280;40181;51.560;13.000;2023-03-13T01:11:44;99858.25;;;6.03;100.00
54270;BME280;40181;51.560;13.000;2023-03-13T01:14:15;99867.97;;;6.12;100.00
54270;BME280;40181;51.560;13.000;2023-03-13T01:16:46;99851.50;;;6.13;100.00
54270;BME280;40181;51.560;13.000;2023-03-13T01:19:15;99848.81;;;6.08;100.00
54270;BME280;40181;51.560;13.000;2023-03-13T01:21:46;99867.22;;;6.16;100.00
54270;BME280;40181;51.560;13.000;2023-03-13T01:24:18;99850.59;;;6.11;100.00
54270;BME280;40181;51.560;13.000;2023-03-13T01:26:48;99853.22;;;6.13;100.00
54270;BME280;40181;51.560;13.000;2023-03-13T01:29:18;99837.50;;;6.08;100.00
54270;BME280;40181;51.560;13.000;2023-03-13T01:31:47;99840.06;;;6.05;100.00
54270;BME280;40181;51.560;13.000;2023-03-13T01:34:16;99849.63;;;6.06;100.00
54270;BME280;40181;51.560;13.000;2023-03-13T01:36:45;99833.34;;;6.18;100.00
54270;BME280;40181;51.560;13.000;2023-03-13T01:39:19;99842.66;;;6.06;100.00
54270;BME280;40181;51.560;13.000;2023-03-13T01:41:48;99833.25;;;6.13;100.00
54270;BME280;40181;51.560;13.000;2023-03-13T01:44:21;99823.56;;;6.06;100.00
54270;BME280;40181;51.560;13.000;2023-03-13T01:46:51;99831.47;;;6.11;100.00
54270;BME280;40181;51.560;13.000;2023-03-13T01:49:23;99820.06;;;6.05;100.00
54270;BME280;40181;51.560;13.000;2023-03-13T01:51:58;99821.16;;;6.17;100.00
54270;BME280;40181;51.560;13.000;2023-03-13T01:54:36;99806.47;;;6.22;100.00
54270;BME280;40181;51.560;13.000;2023-03-13T01:57:09;99815.78;;;6.09;100.00
54270;BME280;40181;51.560;13.000;2023-03-13T01:59:45;99801.03;;;6.09;100.00
54270;BME280;40181;51.560;13.000;2023-03-13T02:02:16;99796.66;;;6.10;100.00
54270;BME280;40181;51.560;13.000;2023-03-13T02:04:48;99788.22;;;6.22;100.00
54270;BME280;40181;51.560;13.000;2023-03-13T02:07:25;99792.53;;;6.20;100.00
54270;BME280;40181;51.560;13.000;2023-03-13T02:09:59;99794.28;;;6.21;100.00
54270;BME280;40181;51.560;13.000;2023-03-13T02:12:31;99794.31;;;6.24;100.00
54270;BME280;40181;51.560;13.000;2023-03-13T02:15:04;99799.69;;;6.32;100.00
54270;BME280;40181;51.560;13.000;2023-03-13T02:17:35;99795.25;;;6.28;100.00
54270;BME280;40181;51.560;13.000;2023-03-13T02:20:07;99788.34;;;6.30;100.00
54270;BME280;40181;51.560;13.000;2023-03-13T02:22:44;99765.03;;;6.39;100.00
54270;BME280;40181;51.560;13.000;2023-03-13T02:25:29;99765.03;;;6.38;100.00
54270;BME280;40181;51.560;13.000;2023-03-13T02:28:05;99774.72;;;6.46;99.83
54270;BME280;40181;51.560;13.000;2023-03-13T02:30:37;99770.34;;;6.44;99.83
54270;BME280;40181;51.560;13.000;2023-03-13T02:33:07;99761.78;;;6.53;99.33
54270;BME280;40181;51.560;13.000;2023-03-13T02:35:37;99766.19;;;6.57;98.65
54270;BME280;40181;51.560;13.000;2023-03-13T02:38:07;99771.50;;;6.60;98.78
54270;BME280;40181;51.560;13.000;2023-03-13T02:40:43;99766.47;;;6.72;97.68
54270;BME280;40181;51.560;13.000;2023-03-13T02:43:17;99764.75;;;6.74;97.67
54270;BME280;40181;51.560;13.000;2023-03-13T02:46:00;99762.22;;;6.79;97.29
54270;BME280;40181;51.560;13.000;2023-03-13T02:48:35;99762.16;;;6.76;97.18
54270;BME280;40181;51.560;13.000;2023-03-13T02:51:13;99761.47;;;6.86;96.75
54270;BME280;40181;51.560;13.000;2023-03-13T02:53:46;99758.84;;;6.86;97.10
54270;BME280;40181;51.560;13.000;2023-03-13T02:56:21;99753.84;;;7.00;96.05
54270;BME280;40181;51.560;13.000;2023-03-13T02:58:52;99754.72;;;7.01;95.87
54270;BME280;40181;51.560;13.000;2023-03-13T03:01:21;99741.69;;;7.02;95.86
54270;BME280;40181;51.560;13.000;2023-03-13T03:03:50;99736.41;;;6.99;95.90
54270;BME280;40181;51.560;13.000;2023-03-13T03:06:20;99750.47;;;7.08;95.75
54270;BME280;40181;51.560;13.000;2023-03-13T03:08:49;99734.75;;;7.06;95.78
54270;BME280;40181;51.560;13.000;2023-03-13T03:11:21;99734.72;;;7.03;96.00
54270;BME280;40181;51.560;13.000;2023-03-13T03:13:50;99718.28;;;7.10;95.80
54270;BME280;40181;51.560;13.000;2023-03-13T03:16:19;99713.09;;;7.12;95.73
54270;BME280;40181;51.560;13.000;2023-03-13T03:18:48;99727.84;;;7.10;95.42
54270;BME280;40181;51.560;13.000;2023-03-13T03:21:17;99725.25;;;7.10;95.50
54270;BME280;40181;51.560;13.000;2023-03-13T03:23:48;99709.63;;;7.13;95.67
54270;BME280;40181;51.560;13.000;2023-03-13T03:26:17;99698.28;;;7.12;95.55
54270;BME280;40181;51.560;13.000;2023-03-13T03:28:49;99708.81;;;7.20;94.98
54270;BME280;40181;51.560;13.000;2023-03-13T03:31:18;99714.06;;;7.20;94.71
54270;BME280;40181;51.560;13.000;2023-03-13T03:33:47;99695.78;;;7.20;95.21
54270;BME280;40181;51.560;13.000;2023-03-13T03:36:18;99695.72;;;7.14;95.11
54270;BME280;40181;51.560;13.000;2023-03-13T03:38:49;99687.09;;;7.23;94.94
54270;BME280;40181;51.560;13.000;2023-03-13T03:41:21;99675.75;;;7.20;95.00
54270;BME280;40181;51.560;13.000;2023-03-13T03:43:50;99670.44;;;7.13;95.45
54270;BME280;40181;51.560;13.000;2023-03-13T03:46:19;99672.19;;;7.15;95.58
54270;BME280;40181;51.560;13.000;2023-03-13T03:48:49;99670.41;;;7.11;96.03
54270;BME280;40181;51.560;13.000;2023-03-13T03:51:19;99673.97;;;7.16;95.20
54270;BME280;40181;51.560;13.000;2023-03-13T03:53:48;99665.28;;;7.17;95.16
54270;BME280;40181;51.560;13.000;2023-03-13T03:56:17;99659.06;;;7.11;95.66
54270;BME280;40181;51.560;13.000;2023-03-13T03:58:49;99646.13;;;7.18;95.25
54270;BME280;40181;51.560;13.000;2023-03-13T04:01:18;99654.03;;;7.25;94.70
54270;BME280;40181;51.560;13.000;2023-03-13T04:03:47;99637.53;;;7.26;94.92
54270;BME280;40181;51.560;13.000;2023-03-13T04:06:16;99639.19;;;7.20;95.12
54270;BME280;40181;51.560;13.000;2023-03-13T04:08:45;99641.06;;;7.31;94.53
54270;BME280;40181;51.560;13.000;2023-03-13T04:11:14;99624.56;;;7.35;94.23
54270;BME280;40181;51.560;13.000;2023-03-13T04:13:45;99614.13;;;7.37;93.86
54270;BME280;40181;51.560;13.000;2023-03-13T04:16:14;99615.88;;;7.38;93.73
54270;BME280;40181;51.560;13.000;2023-03-13T04:18:43;99600.22;;;7.39;93.40
54270;BME280;40181;51.560;13.000;2023-03-13T04:21:12;99605.50;;;7.45;93.09
54270;BME280;40181;51.560;13.000;2023-03-13T04:23:41;99590.66;;;7.43;93.28
54270;BME280;40181;51.560;13.000;2023-03-13T04:26:10;99609.00;;;7.44;93.31
54270;BME280;40181;51.560;13.000;2023-03-13T04:28:39;99593.25;;;7.40;93.27
54270;BME280;40181;51.560;13.000;2023-03-13T04:31:11;99590.66;;;7.43;93.05
54270;BME280;40181;51.560;13.000;2023-03-13T04:33:40;99594.22;;;7.48;92.99
54270;BME280;40181;51.560;13.000;2023-03-13T04:36:09;99588.97;;;7.46;92.81
54270;BME280;40181;51.560;13.000;2023-03-13T04:38:38;99582.00;;;7.47;93.08
54270;BME280;40181;51.560;13.000;2023-03-13T04:41:07;99577.66;;;7.51;92.92
54270;BME280;40181;51.560;13.000;2023-03-13T04:43:37;99579.38;;;7.47;93.15
54270;BME280;40181;51.560;13.000;2023-03-13T04:46:06;99572.50;;;7.54;93.03
54270;BME280;40181;51.560;13.000;2023-03-13T04:48:37;99558.59;;;7.56;92.77
54270;BME280;40181;51.560;13.000;2023-03-13T04:51:06;99545.50;;;7.55;93.11
54270;BME280;40181;51.560;13.000;2023-03-13T04:53:36;99541.22;;;7.66;92.76
54270;BME280;40181;51.560;13.000;2023-03-13T04:56:05;99531.66;;;7.65;92.96
54270;BME280;40181;51.560;13.000;2023-03-13T04:58:34;99521.16;;;7.60;93.47
54270;BME280;40181;51.560;13.000;2023-03-13T05:01:04;99527.31;;;7.66;92.98
54270;BME280;40181;51.560;13.000;2023-03-13T05:03:33;99523.84;;;7.70;93.14
54270;BME280;40181;51.560;13.000;2023-03-13T05:06:05;99519.41;;;7.59;93.39
54270;BME280;40181;51.560;13.000;2023-03-13T05:08:34;99499.47;;;7.72;92.75
54270;BME280;40181;51.560;13.000;2023-03-13T05:11:03;99495.06;;;7.65;93.46
54270;BME280;40181;51.560;13.000;2023-03-13T05:13:33;99492.41;;;7.60;93.80
54270;BME280;40181;51.560;13.000;2023-03-13T05:16:02;99489.84;;;7.67;93.82
54270;BME280;40181;51.560;13.000;2023-03-13T05:18:32;99493.34;;;7.69;93.81
54270;BME280;40181;51.560;13.000;2023-03-13T05:21:04;99484.63;;;7.70;94.00
54270;BME280;40181;51.560;13.000;2023-03-13T05:23:33;99497.72;;;7.71;94.42
54270;BME280;40181;51.560;13.000;2023-03-13T05:26:03;99479.47;;;7.76;94.65
54270;BME280;40181;51.560;13.000;2023-03-13T05:28:32;99479.44;;;7.78;94.81
54270;BME280;40181;51.560;13.000;2023-03-13T05:31:01;99475.13;;;7.81;94.47
54270;BME280;40181;51.560;13.000;2023-03-13T05:33:31;99478.66;;;7.83;94.49
54270;BME280;40181;51.560;13.000;2023-03-13T05:36:00;99462.97;;;7.86;94.56
54270;BME280;40181;51.560;13.000;2023-03-13T05:38:31;99459.47;;;7.84;94.81
54270;BME280;40181;51.560;13.000;2023-03-13T05:41:01;99452.53;;;7.88;94.79
54270;BME280;40181;51.560;13.000;2023-03-13T05:43:30;99446.47;;;7.94;94.99
54270;BME280;40181;51.560;13.000;2023-03-13T05:45:59;99442.91;;;7.85;95.01
54270;BME280;40181;51.560;13.000;2023-03-13T05:48:28;99441.22;;;7.94;94.60
54270;BME280;40181;51.560;13.000;2023-03-13T05:50:57;99439.47;;;7.93;94.89
54270;BME280;40181;51.560;13.000;2023-03-13T05:53:26;99427.28;;;7.96;94.56
54270;BME280;40181;51.560;13.000;2023-03-13T05:55:58;99436.00;;;8.00;94.51
54270;BME280;40181;51.560;13.000;2023-03-13T05:58:27;99423.84;;;8.02;94.54
54270;BME280;40181;51.560;13.000;2023-03-13T06:00:56;99422.06;;;7.99;95.32
54270;BME280;40181;51.560;13.000;2023-03-13T06:03:25;99417.75;;;8.03;95.60
54270;BME280;40181;51.560;13.000;2023-03-13T06:05:56;99409.84;;;8.00;96.41
54270;BME280;40181;51.560;13.000;2023-03-13T06:08:28;99407.25;;;8.00;96.72
54270;BME280;40181;51.560;13.000;2023-03-13T06:11:01;99386.28;;;7.95;98.18
54270;BME280;40181;51.560;13.000;2023-03-13T06:13:30;99388.91;;;7.92;98.79
54270;BME280;40181;51.560;13.000;2023-03-13T06:15:59;99374.94;;;7.92;99.57
54270;BME280;40181;51.560;13.000;2023-03-13T06:18:28;99374.94;;;7.92;99.78
54270;BME280;40181;51.560;13.000;2023-03-13T06:20:59;99373.22;;;7.89;99.70
54270;BME280;40181;51.560;13.000;2023-03-13T06:23:29;99357.50;;;7.91;99.70
54270;BME280;40181;51.560;13.000;2023-03-13T06:26:00;99358.38;;;7.89;100.00
54270;BME280;40181;51.560;13.000;2023-03-13T06:28:29;99355.78;;;7.91;100.00
54270;BME280;40181;51.560;13.000;2023-03-13T06:31:03;99364.50;;;7.95;100.00
54270;BME280;40181;51.560;13.000;2023-03-13T06:33:33;99351.44;;;7.96;100.00
54270;BME280;40181;51.560;13.000;2023-03-13T06:36:03;99350.56;;;7.99;100.00
54270;BME280;40181;51.560;13.000;2023-03-13T06:38:33;99340.09;;;7.91;100.00
54270;BME280;40181;51.560;13.000;2023-03-13T06:41:04;99331.38;;;7.92;100.00
54270;BME280;40181;51.560;13.000;2023-03-13T06:43:34;99338.31;;;7.92;100.00
54270;BME280;40181;51.560;13.000;2023-03-13T06:46:05;99329.66;;;7.93;100.00
54270;BME280;40181;51.560;13.000;2023-03-13T06:48:34;99341.84;;;7.97;100.00
54270;BME280;40181;51.560;13.000;2023-03-13T06:51:03;99336.56;;;7.80;100.00
54270;BME280;40181;51.560;13.000;2023-03-13T06:53:32;99336.56;;;7.80;100.00
54270;BME280;40181;51.560;13.000;2023-03-13T06:56:02;99329.59;;;7.82;100.00
54270;BME280;40181;51.560;13.000;2023-03-13T06:58:34;99319.16;;;7.83;100.00
54270;BME280;40181;51.560;13.000;2023-03-13T07:01:05;99313.03;;;7.86;100.00
54270;BME280;40181;51.560;13.000;2023-03-13T07:03:35;99306.06;;;7.85;100.00
54270;BME280;40181;51.560;13.000;2023-03-13T07:06:06;99326.94;;;7.72;100.00
54270;BME280;40181;51.560;13.000;2023-03-13T07:08:37;99317.38;;;7.76;100.00
54270;BME280;40181;51.560;13.000;2023-03-13T07:11:10;99327.81;;;7.76;100.00
54270;BME280;40181;51.560;13.000;2023-03-13T07:13:40;99319.09;;;7.77;100.00
54270;BME280;40181;51.560;13.000;2023-03-13T07:16:11;99308.66;;;7.77;100.00
54270;BME280;40181;51.560;13.000;2023-03-13T07:18:41;99297.31;;;7.73;100.00
54270;BME280;40181;51.560;13.000;2023-03-13T07:21:10;99291.22;;;7.79;100.00
54270;BME280;40181;51.560;13.000;2023-03-13T07:23:40;99294.72;;;7.75;100.00
54270;BME280;40181;51.560;13.000;2023-03-13T07:26:13;99303.38;;;7.68;100.00
54270;BME280;40181;51.560;13.000;2023-03-13T07:28:43;99293.81;;;7.74;100.00
54270;BME280;40181;51.560;13.000;2023-03-13T07:31:13;99293.84;;;7.79;100.00
54270;BME280;40181;51.560;13.000;2023-03-13T07:33:44;99290.34;;;7.75;100.00
54270;BME280;40181;51.560;13.000;2023-03-13T07:36:16;99279.88;;;7.79;100.00
54270;BME280;40181;51.560;13.000;2023-03-13T07:38:46;99290.38;;;7.82;100.00
54270;BME280;40181;51.560;13.000;2023-03-13T07:41:19;99287.78;;;7.89;100.00
54270;BME280;40181;51.560;13.000;2023-03-13T07:43:48;99290.38;;;7.86;100.00
54270;BME280;40181;51.560;13.000;2023-03-13T07:46:18;99296.50;;;7.88;100.00
54270;BME280;40181;51.560;13.000;2023-03-13T07:48:47;99287.81;;;7.93;100.00
54270;BME280;40181;51.560;13.000;2023-03-13T07:51:19;99275.59;;;7.90;100.00
54270;BME280;40181;51.560;13.000;2023-03-13T07:53:49;99276.47;;;7.94;100.00
54270;BME280;40181;51.560;13.000;2023-03-13T07:56:22;99263.41;;;8.01;100.00
54270;BME280;40181;51.560;13.000;2023-03-13T07:58:51;99271.25;;;8.00;100.00
54270;BME280;40181;51.560;13.000;2023-03-13T08:01:22;99258.16;;;7.97;100.00
54270;BME280;40181;51.560;13.000;2023-03-13T08:03:52;99257.28;;;8.01;100.00
54270;BME280;40181;51.560;13.000;2023-03-13T08:06:23;99246.00;;;8.02;100.00
54270;BME280;40181;51.560;13.000;2023-03-13T08:08:56;99259.06;;;8.10;100.00
54270;BME280;40181;51.560;13.000;2023-03-13T08:11:28;99249.50;;;8.23;100.00
54270;BME280;40181;51.560;13.000;2023-03-13T08:13:57;99258.22;;;8.17;100.00
54270;BME280;40181;51.560;13.000;2023-03-13T08:16:28;99257.34;;;8.23;100.00
54270;BME280;40181;51.560;13.000;2023-03-13T08:18:59;99269.59;;;8.35;100.00
54270;BME280;40181;51.560;13.000;2023-03-13T08:21:32;99246.03;;;8.35;100.00
54270;BME280;40181;51.560;13.000;2023-03-13T08:24:04;99261.75;;;8.42;100.00
54270;BME280;40181;51.560;13.000;2023-03-13T08:26:39;99265.28;;;8.55;100.00
54270;BME280;40181;51.560;13.000;2023-03-13T08:29:10;99245.22;;;8.64;100.00
54270;BME280;40181;51.560;13.000;2023-03-13T08:31:43;99243.47;;;8.66;100.00
54270;BME280;40181;51.560;13.000;2023-03-13T08:34:14;99229.53;;;8.75;100.00
54270;BME280;40181;51.560;13.000;2023-03-13T08:36:43;99238.22;;;8.75;100.00
54270;BME280;40181;51.560;13.000;2023-03-13T08:39:14;99229.53;;;8.75;100.00
54270;BME280;40181;51.560;13.000;2023-03-13T08:41:47;99224.28;;;8.84;100.00
54270;BME280;40181;51.560;13.000;2023-03-13T08:44:17;99228.63;;;8.82;100.00
54270;BME280;40181;51.560;13.000;2023-03-13T08:46:47;99227.75;;;8.88;100.00
54270;BME280;40181;51.560;13.000;2023-03-13T08:49:16;99216.38;;;8.95;100.00
54270;BME280;40181;51.560;13.000;2023-03-13T08:51:45;99235.59;;;8.98;100.00
54270;BME280;40181;51.560;13.000;2023-03-13T08:54:14;99225.97;;;9.07;100.00
54270;BME280;40181;51.560;13.000;2023-03-13T08:56:46;99229.44;;;9.13;100.00
54270;BME280;40181;51.560;13.000;2023-03-13T08:59:15;99225.09;;;9.16;100.00
54270;BME280;40181;51.560;13.000;2023-03-13T09:01:44;99241.69;;;9.13;100.00
54270;BME280;40181;51.560;13.000;2023-03-13T09:04:14;99221.56;;;9.20;100.00
54270;BME280;40181;51.560;13.000;2023-03-13T09:06:43;99229.47;;;9.12;100.00
54270;BME280;40181;51.560;13.000;2023-03-13T09:09:13;99227.72;;;9.14;100.00
54270;BME280;40181;51.560;13.000;2023-03-13T09:11:42;99216.34;;;9.17;100.00
54270;BME280;40181;51.560;13.000;2023-03-13T09:14:14;99238.19;;;9.08;100.00
54270;BME280;40181;51.560;13.000;2023-03-13T09:16:43;99230.34;;;9.05;100.00
54270;BME280;40181;51.560;13.000;2023-03-13T09:19:12;99214.63;;;9.06;100.00
54270;BME280;40181;51.560;13.000;2023-03-13T09:21:41;99210.28;;;9.04;100.00
54270;BME280;40181;51.560;13.000;2023-03-13T09:24:10;99205.91;;;9.01;100.00
54270;BME280;40181;51.560;13.000;2023-03-13T09:26:40;99194.56;;;8.97;100.00
54270;BME280;40181;51.560;13.000;2023-03-13T09:29:11;99199.81;;;9.01;100.00
54270;BME280;40181;51.560;13.000;2023-03-13T09:31:40;99195.44;;;8.96;100.00
54270;BME280;40181;51.560;13.000;2023-03-13T09:34:09;99213.75;;;9.06;100.00
54270;BME280;40181;51.560;13.000;2023-03-13T09:36:38;99209.38;;;9.09;100.00
54270;BME280;40181;51.560;13.000;2023-03-13T09:39:08;99218.13;;;9.04;100.00
54270;BME280;40181;51.560;13.000;2023-03-13T09:41:39;99211.13;;;9.06;100.00
54270;BME280;40181;51.560;13.000;2023-03-13T09:44:19;99202.38;;;9.13;100.00
54270;BME280;40181;51.560;13.000;2023-03-13T09:46:59;99216.34;;;9.15;100.00
54270;BME280;40181;51.560;13.000;2023-03-13T09:49:33;99201.47;;;9.26;100.00
54270;BME280;40181;51.560;13.000;2023-03-13T09:52:13;99200.59;;;9.31;100.00
54270;BME280;40181;51.560;13.000;2023-03-13T09:54:47;99190.97;;;9.39;100.00
54270;BME280;40181;51.560;13.000;2023-03-13T09:57:24;99190.88;;;9.50;100.00
54270;BME280;40181;51.560;13.000;2023-03-13T10:00:05;99192.63;;;9.55;100.00
54270;BME280;40181;51.560;13.000;2023-03-13T10:02:42;99198.72;;;9.62;100.00
54270;BME280;40181;51.560;13.000;2023-03-13T10:05:15;99202.19;;;9.69;100.00
54270;BME280;40181;51.560;13.000;2023-03-13T10:07:48;99217.88;;;9.75;100.00
54270;BME280;40181;51.560;13.000;2023-03-13T10:10:20;99217.88;;;9.78;100.00
54270;BME280;40181;51.560;13.000;2023-03-13T10:13:02;99215.22;;;9.83;100.00
54270;BME280;40181;51.560;13.000;2023-03-13T10:15:46;99212.56;;;9.89;100.00
54270;BME280;40181;51.560;13.000;2023-03-13T10:18:19;99207.28;;;9.92;100.00
54270;BME280;40181;51.560;13.000;2023-03-13T10:20:51;99209.06;;;9.92;100.00
54270;BME280;40181;51.560;13.000;2023-03-13T10:23:26;99187.19;;;9.93;100.00
54270;BME280;40181;51.560;13.000;2023-03-13T10:26:03;99184.53;;;9.98;100.00
54270;BME280;40181;51.560;13.000;2023-03-13T10:28:32;99169.59;;;10.07;100.00
54270;BME280;40181;51.560;13.000;2023-03-13T10:31:20;99167.88;;;10.05;100.00
54270;BME280;40181;51.560;13.000;2023-03-13T10:33:53;99169.59;;;10.10;100.00
54270;BME280;40181;51.560;13.000;2023-03-13T10:36:39;99177.41;;;10.20;100.00
54270;BME280;40181;51.560;13.000;2023-03-13T10:39:14;99183.41;;;10.34;100.00
54270;BME280;40181;51.560;13.000;2023-03-13T10:41:45;99185.97;;;10.39;100.00
54270;BME280;40181;51.560;13.000;2023-03-13T10:44:17;99188.66;;;10.36;100.00
54270;BME280;40181;51.560;13.000;2023-03-13T10:46:50;99193.84;;;10.39;100.00
54270;BME280;40181;51.560;13.000;2023-03-13T10:49:20;99181.56;;;10.47;100.00
54270;BME280;40181;51.560;13.000;2023-03-13T10:51:52;99175.44;;;10.48;100.00
54270;BME280;40181;51.560;13.000;2023-03-13T10:54:23;99178.03;;;10.53;100.00
54270;BME280;40181;51.560;13.000;2023-03-13T10:57:16;99166.59;;;10.62;100.00
54270;BME280;40181;51.560;13.000;2023-03-13T10:59:52;99164.75;;;10.69;100.00
54270;BME280;40181;51.560;13.000;2023-03-13T11:02:26;99153.31;;;10.74;100.00
54270;BME280;40181;51.560;13.000;2023-03-13T11:04:59;99141.88;;;10.83;99.96
54270;BME280;40181;51.560;13.000;2023-03-13T11:07:31;99151.38;;;10.95;98.40
54270;BME280;40181;51.560;13.000;2023-03-13T11:10:16;99126.75;;;11.04;98.90
54270;BME280;40181;51.560;13.000;2023-03-13T11:12:49;99138.03;;;11.11;97.37
54270;BME280;40181;51.560;13.000;2023-03-13T11:15:22;99145.81;;;11.20;96.49
54270;BME280;40181;51.560;13.000;2023-03-13T11:18:00;99135.19;;;11.32;97.12
54270;BME280;40181;51.560;13.000;2023-03-13T11:20:33;99126.34;;;11.38;95.66
54270;BME280;40181;51.560;13.000;2023-03-13T11:23:15;99135.72;;;11.56;94.75
54270;BME280;40181;51.560;13.000;2023-03-13T11:25:54;99137.34;;;11.67;94.15
54270;BME280;40181;51.560;13.000;2023-03-13T11:28:39;99110.88;;;11.77;94.94
54270;BME280;40181;51.560;13.000;2023-03-13T11:31:18;99112.53;;;11.83;94.69
54270;BME280;40181;51.560;13.000;2023-03-13T11:33:58;99090.47;;;11.94;93.85
54270;BME280;40181;51.560;13.000;2023-03-13T11:36:34;99086.88;;;11.99;94.54
54270;BME280;40181;51.560;13.000;2023-03-13T11:42:43;99097.88;;;12.26;93.68
54270;BME280;40181;51.560;13.000;2023-03-13T11:45:41;99106.38;;;12.41;91.71
54270;BME280;40181;51.560;13.000;2023-03-13T11:48:36;99083.22;;;12.60;91.59
54270;BME280;40181;51.560;13.000;2023-03-13T11:51:35;99086.69;;;12.62;91.61
54270;BME280;40181;51.560;13.000;2023-03-13T11:54:28;99088.59;;;12.55;91.25
54270;BME280;40181;51.560;13.000;2023-03-13T11:57:12;99068.34;;;12.57;90.79
54270;BME280;40181;51.560;13.000;2023-03-13T11:59:52;99084.06;;;12.62;90.38
54270;BME280;40181;51.560;13.000;2023-03-13T12:02:38;99084.06;;;12.62;90.90
54270;BME280;40181;51.560;13.000;2023-03-13T12:05:14;99085.78;;;12.65;91.09
54270;BME280;40181;51.560;13.000;2023-03-13T12:07:51;99088.41;;;12.65;91.33
54270;BME280;40181;51.560;13.000;2023-03-13T12:10:26;99054.91;;;12.71;91.33
54270;BME280;40181;51.560;13.000;2023-03-13T12:13:02;99069.78;;;12.74;89.94
54270;BME280;40181;51.560;13.000;2023-03-13T12:15:37;99058.25;;;12.80;89.78
54270;BME280;40181;51.560;13.000;2023-03-13T12:18:16;99084.69;;;12.75;89.71
54270;BME280;40181;51.560;13.000;2023-03-13T12:20:50;99095.13;;;12.81;89.63
54270;BME280;40181;51.560;13.000;2023-03-13T12:23:32;99075.72;;;12.85;89.93
54270;BME280;40181;51.560;13.000;2023-03-13T12:26:12;99087.19;;;12.83;90.51
54270;BME280;40181;51.560;13.000;2023-03-13T12:28:44;99096.88;;;12.81;90.17
54270;BME280;40181;51.560;13.000;2023-03-13T12:31:23;99111.63;;;12.91;89.45
54270;BME280;40181;51.560;13.000;2023-03-13T12:33:59;99104.59;;;12.92;89.99
54270;BME280;40181;51.560;13.000;2023-03-13T12:36:39;99095.03;;;12.86;90.24
54270;BME280;40181;51.560;13.000;2023-03-13T12:39:23;99089.78;;;12.86;90.22
54270;BME280;40181;51.560;13.000;2023-03-13T12:42:10;99081.91;;;12.83;90.40
54270;BME280;40181;51.560;13.000;2023-03-13T12:44:46;99088.81;;;12.90;90.11
54270;BME280;40181;51.560;13.000;2023-03-13T12:47:19;99076.50;;;12.91;89.47
54270;BME280;40181;51.560;13.000;2023-03-13T12:50:06;99086.13;;;12.93;89.48
54270;BME280;40181;51.560;13.000;2023-03-13T12:52:58;99064.16;;;12.93;89.31
54270;BME280;40181;51.560;13.000;2023-03-13T12:56:24;99062.25;;;12.99;88.63
54270;BME280;40181;51.560;13.000;2023-03-13T12:59:09;99050.81;;;13.00;88.80
54270;BME280;40181;51.560;13.000;2023-03-13T13:01:44;99059.56;;;13.03;88.77
54270;BME280;40181;51.560;13.000;2023-03-13T13:04:17;99054.31;;;13.03;88.42
54270;BME280;40181;51.560;13.000;2023-03-13T13:06:54;99052.41;;;13.09;87.88
54270;BME280;40181;51.560;13.000;2023-03-13T13:09:27;99022.28;;;13.20;87.43
54270;BME280;40181;51.560;13.000;2023-03-13T13:12:01;99023.19;;;13.19;87.19
54270;BME280;40181;51.560;13.000;2023-03-13T13:14:55;99030.00;;;13.29;86.42
54270;BME280;40181;51.560;13.000;2023-03-13T13:17:59;99021.19;;;13.30;86.17
54270;BME280;40181;51.560;13.000;2023-03-13T13:20:42;99019.44;;;13.29;85.37
54270;BME280;40181;51.560;13.000;2023-03-13T13:23:24;99021.94;;;13.35;85.20
54270;BME280;40181;51.560;13.000;2023-03-13T13:32:39;99000.91;;;13.32;85.19